sensor_id;sensor_type;location;lat;lon;timestamp;pressure;altitude;pressure_sealevel;temperature;humidity
40918;BME280;26644;50.248;19.032;2024-03-02T00:02:39;97489.59;;;9.08;78.88
40918;BME280;26644;50.248;19.032;2024-03-02T00:05:49;97485.53;;;9.05;79.02
40918;BME280;26644;50.248;19.032;2024-03-02T00:08:58;97495.66;;;9.05;79.00
40918;BME280;26644;50.248;19.032;2024-03-02T00:12:02;97488.31;;;9.00;78.86
40918;BME280;26644;50.248;19.032;2024-03-02T00:15:41;97494.41;;;8.97;78.83
40918;BME280;26644;50.248;19.032;2024-03-02T00:18:53;97498.22;;;8.96;78.86
40918;BME280;26644;50.248;19.032;2024-03-02T00:22:00;97499.88;;;8.92;79.02
40918;BME280;26644;50.248;19.032;2024-03-02T00:25:05;97509.56;;;8.84;79.37
40918;BME280;26644;50.248;19.032;2024-03-02T00:28:18;97502.00;;;8.76;79.53
40918;BME280;26644;50.248;19.032;2024-03-02T00:31:24;97498.25;;;8.67;79.83
40918;BME280;26644;50.248;19.032;2024-03-02T00:34:32;97504.88;;;8.60;80.25
40918;BME280;26644;50.248;19.032;2024-03-02T00:37:36;97501.94;;;8.52;80.51
40918;BME280;26644;50.248;19.032;2024-03-02T00:40:42;97491.63;;;8.43;80.88
40918;BME280;26644;50.248;19.032;2024-03-02T00:44:07;97503.16;;;8.40;80.95
40918;BME280;26644;50.248;19.032;2024-03-02T00:47:16;97491.38;;;8.40;81.37
40918;BME280;26644;50.248;19.032;2024-03-02T00:50:23;97499.25;;;8.47;81.72
40918;BME280;26644;50.248;19.032;2024-03-02T00:53:28;97495.31;;;8.58;81.17
40918;BME280;26644;50.248;19.032;2024-03-02T00:56:34;97486.19;;;8.68;81.03
40918;BME280;26644;50.248;19.032;2024-03-02T00:59:39;97495.91;;;8.79;79.89
40918;BME280;26644;50.248;19.032;2024-03-02T01:02:43;97490.69;;;8.83;79.79
40918;BME280;26644;50.248;19.032;2024-03-02T01:05:51;97490.69;;;8.83;79.19
40918;BME280;26644;50.248;19.032;2024-03-02T01:08:55;97486.03;;;8.83;79.41
40918;BME280;26644;50.248;19.032;2024-03-02T01:12:00;97489.91;;;8.77;78.88
40918;BME280;26644;50.248;19.032;2024-03-02T01:15:05;97492.44;;;8.73;79.28
40918;BME280;26644;50.248;19.032;2024-03-02T01:18:11;97483.09;;;8.74;79.65
40918;BME280;26644;50.248;19.032;2024-03-02T01:21:18;97480.91;;;8.76;79.20
40918;BME280;26644;50.248;19.032;2024-03-02T01:24:22;97471.28;;;8.79;78.89
40918;BME280;26644;50.248;19.032;2024-03-02T01:27:27;97474.53;;;8.81;78.75
40918;BME280;26644;50.248;19.032;2024-03-02T01:30:32;97473.50;;;8.77;78.35
40918;BME280;26644;50.248;19.032;2024-03-02T01:33:36;97472.75;;;8.71;78.26
40918;BME280;26644;50.248;19.032;2024-03-02T01:36:43;97470.66;;;8.63;78.06
40918;BME280;26644;50.248;19.032;2024-03-02T01:39:47;97470.44;;;8.54;78.66
40918;BME280;26644;50.248;19.032;2024-03-02T01:42:53;97463.19;;;8.44;78.82
40918;BME280;26644;50.248;19.032;2024-03-02T01:45:59;97458.91;;;8.33;79.33
40918;BME280;26644;50.248;19.032;2024-03-02T01:49:04;97459.81;;;8.23;79.73
40918;BME280;26644;50.248;19.032;2024-03-02T01:52:11;97453.31;;;8.19;80.04
40918;BME280;26644;50.248;19.032;2024-03-02T01:55:16;97455.22;;;8.19;80.12
40918;BME280;26644;50.248;19.032;2024-03-02T01:58:23;97450.22;;;8.26;80.10
40918;BME280;26644;50.248;19.032;2024-03-02T02:01:28;97448.31;;;8.26;79.47
40918;BME280;26644;50.248;19.032;2024-03-02T02:04:32;97444.22;;;8.24;78.94
40918;BME280;26644;50.248;19.032;2024-03-02T02:07:40;97447.78;;;8.24;79.39
40918;BME280;26644;50.248;19.032;2024-03-02T02:10:44;97440.94;;;8.27;79.43
40918;BME280;26644;50.248;19.032;2024-03-02T02:13:49;97442.03;;;8.26;78.91
40918;BME280;26644;50.248;19.032;2024-03-02T02:16:56;97432.72;;;8.27;79.21
40918;BME280;26644;50.248;19.032;2024-03-02T02:20:01;97434.06;;;8.30;79.57
40918;BME280;26644;50.248;19.032;2024-03-02T02:23:09;97438.66;;;8.34;78.98
40918;BME280;26644;50.248;19.032;2024-03-02T02:26:15;97434.84;;;8.35;78.61
40918;BME280;26644;50.248;19.032;2024-03-02T02:29:19;97432.72;;;8.27;78.15
40918;BME280;26644;50.248;19.032;2024-03-02T02:32:24;97434.69;;;8.21;79.10
40918;BME280;26644;50.248;19.032;2024-03-02T02:35:28;97424.56;;;8.22;78.85
40918;BME280;26644;50.248;19.032;2024-03-02T02:38:40;97427.81;;;8.24;78.85
40918;BME280;26644;50.248;19.032;2024-03-02T02:41:48;97431.59;;;8.28;78.59
40918;BME280;26644;50.248;19.032;2024-03-02T02:44:53;97426.72;;;8.25;78.31
40918;BME280;26644;50.248;19.032;2024-03-02T02:47:57;97435.22;;;8.23;78.52
40918;BME280;26644;50.248;19.032;2024-03-02T02:51:04;97443.94;;;8.25;78.35
40918;BME280;26644;50.248;19.032;2024-03-02T02:54:11;97438.25;;;8.22;78.03
40918;BME280;26644;50.248;19.032;2024-03-02T02:57:15;97430.59;;;8.19;78.34
40918;BME280;26644;50.248;19.032;2024-03-02T03:00:20;97439.09;;;8.17;78.36
40918;BME280;26644;50.248;19.032;2024-03-02T03:03:25;97434.69;;;8.21;79.14
40918;BME280;26644;50.248;19.032;2024-03-02T03:06:29;97435.16;;;8.28;77.80
40918;BME280;26644;50.248;19.032;2024-03-02T03:09:37;97427.03;;;8.23;78.17
40918;BME280;26644;50.248;19.032;2024-03-02T03:12:42;97432.72;;;8.27;77.99
40918;BME280;26644;50.248;19.032;2024-03-02T03:15:48;97440.00;;;8.37;78.54
40918;BME280;26644;50.248;19.032;2024-03-02T03:18:52;97439.94;;;8.42;77.66
40918;BME280;26644;50.248;19.032;2024-03-02T03:21:57;97438.50;;;8.50;77.95
40918;BME280;26644;50.248;19.032;2024-03-02T03:25:05;97438.97;;;8.57;77.08
40918;BME280;26644;50.248;19.032;2024-03-02T03:28:10;97438.72;;;8.53;76.83
40918;BME280;26644;50.248;19.032;2024-03-02T03:31:14;97443.03;;;8.59;77.00
40918;BME280;26644;50.248;19.032;2024-03-02T03:34:19;97442.69;;;8.66;76.64
40918;BME280;26644;50.248;19.032;2024-03-02T03:37:23;97441.59;;;8.67;76.08
40918;BME280;26644;50.248;19.032;2024-03-02T03:40:36;97436.53;;;8.55;76.07
40918;BME280;26644;50.248;19.032;2024-03-02T03:43:41;97441.69;;;8.57;76.08
40918;BME280;26644;50.248;19.032;2024-03-02T03:46:45;97441.19;;;8.55;76.46
40918;BME280;26644;50.248;19.032;2024-03-02T03:49:50;97443.59;;;8.61;76.32
40918;BME280;26644;50.248;19.032;2024-03-02T03:52:55;97442.19;;;8.64;76.20
40918;BME280;26644;50.248;19.032;2024-03-02T03:56:01;97437.53;;;8.65;75.95
40918;BME280;26644;50.248;19.032;2024-03-02T03:59:07;97439.91;;;8.71;75.99
40918;BME280;26644;50.248;19.032;2024-03-02T04:02:11;97425.72;;;8.69;75.96
40918;BME280;26644;50.248;19.032;2024-03-02T04:05:16;97424.81;;;8.74;75.77
40918;BME280;26644;50.248;19.032;2024-03-02T04:08:20;97416.56;;;8.79;75.95
40918;BME280;26644;50.248;19.032;2024-03-02T04:11:28;97420.03;;;8.85;75.55
40918;BME280;26644;50.248;19.032;2024-03-02T04:14:32;97426.84;;;8.87;74.73
40918;BME280;26644;50.248;19.032;2024-03-02T04:17:37;97431.50;;;8.87;75.02
40918;BME280;26644;50.248;19.032;2024-03-02T04:20:41;97435.66;;;8.84;75.30
40918;BME280;26644;50.248;19.032;2024-03-02T04:23:46;97440.28;;;8.84;75.20
40918;BME280;26644;50.248;19.032;2024-03-02T04:26:53;97431.63;;;8.76;74.63
40918;BME280;26644;50.248;19.032;2024-03-02T04:29:58;97448.41;;;8.70;74.94
40918;BME280;26644;50.248;19.032;2024-03-02T04:33:02;97435.88;;;8.64;74.99
40918;BME280;26644;50.248;19.032;2024-03-02T04:36:09;97436.41;;;8.66;75.51
40918;BME280;26644;50.248;19.032;2024-03-02T04:39:13;97438.91;;;8.62;75.08
40918;BME280;26644;50.248;19.032;2024-03-02T04:42:20;97436.19;;;8.62;75.45
40918;BME280;26644;50.248;19.032;2024-03-02T04:45:25;97436.47;;;8.60;75.46
40918;BME280;26644;50.248;19.032;2024-03-02T04:48:31;97435.38;;;8.61;75.66
40918;BME280;26644;50.248;19.032;2024-03-02T04:51:35;97447.66;;;8.64;75.23
40918;BME280;26644;50.248;19.032;2024-03-02T04:54:40;97442.25;;;8.59;74.97
40918;BME280;26644;50.248;19.032;2024-03-02T04:57:59;97444.16;;;8.58;75.06
40918;BME280;26644;50.248;19.032;2024-03-02T05:01:04;97454.88;;;8.55;75.12
40918;BME280;26644;50.248;19.032;2024-03-02T05:04:08;97442.00;;;8.55;75.49
40918;BME280;26644;50.248;19.032;2024-03-02T05:07:13;97442.88;;;8.51;75.05
40918;BME280;26644;50.248;19.032;2024-03-02T05:10:17;97436.34;;;8.47;74.95
40918;BME280;26644;50.248;19.032;2024-03-02T05:13:25;97441.06;;;8.41;75.53
40918;BME280;26644;50.248;19.032;2024-03-02T05:16:29;97450.41;;;8.35;75.65
40918;BME280;26644;50.248;19.032;2024-03-02T05:19:37;97454.22;;;8.39;76.31
40918;BME280;26644;50.248;19.032;2024-03-02T05:22:41;97468.44;;;8.36;75.23
40918;BME280;26644;50.248;19.032;2024-03-02T05:25:46;97461.94;;;8.32;75.95
40918;BME280;26644;50.248;19.032;2024-03-02T05:28:52;97462.56;;;8.23;76.26
40918;BME280;26644;50.248;19.032;2024-03-02T05:31:57;97466.97;;;8.19;76.40
40918;BME280;26644;50.248;19.032;2024-03-02T05:35:02;97469.16;;;8.17;76.59
40918;BME280;26644;50.248;19.032;2024-03-02T05:38:07;97470.22;;;8.21;76.78
40918;BME280;26644;50.248;19.032;2024-03-02T05:41:11;97467.22;;;8.23;76.78
40918;BME280;26644;50.248;19.032;2024-03-02T05:44:18;97468.22;;;8.32;76.51
40918;BME280;26644;50.248;19.032;2024-03-02T05:47:23;97477.50;;;8.36;76.38
40918;BME280;26644;50.248;19.032;2024-03-02T05:50:29;97478.75;;;8.44;76.05
40918;BME280;26644;50.248;19.032;2024-03-02T05:53:33;97480.34;;;8.50;75.71
40918;BME280;26644;50.248;19.032;2024-03-02T05:56:39;97482.75;;;8.57;76.06
40918;BME280;26644;50.248;19.032;2024-03-02T05:59:46;97479.19;;;8.56;75.65
40918;BME280;26644;50.248;19.032;2024-03-02T06:02:51;97483.75;;;8.66;75.61
40918;BME280;26644;50.248;19.032;2024-03-02T06:05:55;97489.41;;;8.75;75.01
40918;BME280;26644;50.248;19.032;2024-03-02T06:09:01;97495.63;;;8.81;75.02
40918;BME280;26644;50.248;19.032;2024-03-02T06:12:08;97495.28;;;8.87;75.11
40918;BME280;26644;50.248;19.032;2024-03-02T06:15:15;97497.41;;;8.95;74.37
40918;BME280;26644;50.248;19.032;2024-03-02T06:18:20;97502.25;;;9.04;74.12
40918;BME280;26644;50.248;19.032;2024-03-02T06:21:24;97506.84;;;9.08;73.89
40918;BME280;26644;50.248;19.032;2024-03-02T06:24:29;97506.25;;;9.11;73.70
40918;BME280;26644;50.248;19.032;2024-03-02T06:27:34;97499.91;;;9.16;73.41
40918;BME280;26644;50.248;19.032;2024-03-02T06:30:41;97498.19;;;9.20;73.32
40918;BME280;26644;50.248;19.032;2024-03-02T06:33:46;97508.50;;;9.28;73.26
40918;BME280;26644;50.248;19.032;2024-03-02T06:36:51;97511.19;;;9.34;73.67
40918;BME280;26644;50.248;19.032;2024-03-02T06:39:56;97502.34;;;9.37;73.15
40918;BME280;26644;50.248;19.032;2024-03-02T06:43:00;97503.44;;;9.41;73.56
40918;BME280;26644;50.248;19.032;2024-03-02T06:46:07;97499.50;;;9.47;73.35
40918;BME280;26644;50.248;19.032;2024-03-02T06:49:15;97513.66;;;9.54;73.04
40918;BME280;26644;50.248;19.032;2024-03-02T06:52:20;97501.50;;;9.60;72.63
40918;BME280;26644;50.248;19.032;2024-03-02T06:55:24;97508.47;;;9.72;72.58
40918;BME280;26644;50.248;19.032;2024-03-02T06:58:29;97498.97;;;9.83;72.51
40918;BME280;26644;50.248;19.032;2024-03-02T07:01:36;97498.44;;;10.00;72.15
40918;BME280;26644;50.248;19.032;2024-03-02T07:04:42;97505.09;;;10.13;71.85
40918;BME280;26644;50.248;19.032;2024-03-02T07:07:46;97515.22;;;10.32;71.58
40918;BME280;26644;50.248;19.032;2024-03-02T07:10:51;97513.81;;;10.48;70.99
40918;BME280;26644;50.248;19.032;2024-03-02T07:13:55;97516.34;;;10.64;70.31
40918;BME280;26644;50.248;19.032;2024-03-02T07:17:03;97515.75;;;10.81;69.50
40918;BME280;26644;50.248;19.032;2024-03-02T07:20:08;97520.44;;;10.94;69.46
40918;BME280;26644;50.248;19.032;2024-03-02T07:23:14;97522.91;;;11.09;68.87
40918;BME280;26644;50.248;19.032;2024-03-02T07:26:19;97526.25;;;11.20;67.65
40918;BME280;26644;50.248;19.032;2024-03-02T07:29:24;97531.81;;;11.29;66.90
40918;BME280;26644;50.248;19.032;2024-03-02T07:32:31;97528.50;;;11.32;66.71
40918;BME280;26644;50.248;19.032;2024-03-02T07:35:36;97528.38;;;11.37;66.64
40918;BME280;26644;50.248;19.032;2024-03-02T07:38:40;97533.66;;;11.34;66.38
40918;BME280;26644;50.248;19.032;2024-03-02T07:41:46;97529.09;;;11.29;66.05
40918;BME280;26644;50.248;19.032;2024-03-02T07:44:51;97536.09;;;11.35;66.13
40918;BME280;26644;50.248;19.032;2024-03-02T07:47:58;97531.94;;;11.38;66.01
40918;BME280;26644;50.248;19.032;2024-03-02T07:51:04;97544.47;;;11.44;66.01
40918;BME280;26644;50.248;19.032;2024-03-02T07:54:09;97546.06;;;11.45;65.77
40918;BME280;26644;50.248;19.032;2024-03-02T07:57:14;97545.16;;;11.50;65.74
40918;BME280;26644;50.248;19.032;2024-03-02T08:00:19;97541.78;;;11.53;66.01
40918;BME280;26644;50.248;19.032;2024-03-02T08:03:26;97541.09;;;11.61;65.76
40918;BME280;26644;50.248;19.032;2024-03-02T08:06:31;97543.00;;;11.60;65.61
40918;BME280;26644;50.248;19.032;2024-03-02T08:09:35;97545.00;;;11.69;65.87
40918;BME280;26644;50.248;19.032;2024-03-02T08:12:41;97553.75;;;11.85;65.71
40918;BME280;26644;50.248;19.032;2024-03-02T08:15:45;97556.28;;;12.09;65.51
40918;BME280;26644;50.248;19.032;2024-03-02T08:18:52;97558.41;;;12.35;64.57
40918;BME280;26644;50.248;19.032;2024-03-02T08:21:59;97553.84;;;12.84;63.61
40918;BME280;26644;50.248;19.032;2024-03-02T08:25:04;97551.41;;;13.14;62.34
40918;BME280;26644;50.248;19.032;2024-03-02T08:28:09;97559.31;;;13.38;61.44
40918;BME280;26644;50.248;19.032;2024-03-02T08:31:14;97564.72;;;13.61;60.45
40918;BME280;26644;50.248;19.032;2024-03-02T08:34:21;97566.53;;;13.74;60.70
40918;BME280;26644;50.248;19.032;2024-03-02T08:37:26;97573.53;;;13.81;59.98
40918;BME280;26644;50.248;19.032;2024-03-02T08:40:30;97561.69;;;13.80;59.48
40918;BME280;26644;50.248;19.032;2024-03-02T08:43:35;97567.22;;;13.80;59.27
40918;BME280;26644;50.248;19.032;2024-03-02T08:46:40;97567.53;;;13.87;59.80
40918;BME280;26644;50.248;19.032;2024-03-02T08:49:48;97569.81;;;13.85;59.84
40918;BME280;26644;50.248;19.032;2024-03-02T08:52:52;97559.91;;;13.84;59.21
40918;BME280;26644;50.248;19.032;2024-03-02T08:55:57;97580.50;;;13.69;59.26
40918;BME280;26644;50.248;19.032;2024-03-02T08:59:02;97573.59;;;13.49;60.10
40918;BME280;26644;50.248;19.032;2024-03-02T09:02:07;97579.63;;;13.20;61.00
40918;BME280;26644;50.248;19.032;2024-03-02T09:05:15;97576.34;;;13.09;61.73
40918;BME280;26644;50.248;19.032;2024-03-02T09:08:20;97578.25;;;13.00;62.23
40918;BME280;26644;50.248;19.032;2024-03-02T09:11:24;97576.66;;;12.76;62.73
40918;BME280;26644;50.248;19.032;2024-03-02T09:14:29;97575.59;;;12.63;63.56
40918;BME280;26644;50.248;19.032;2024-03-02T09:17:33;97577.06;;;12.60;63.94
40918;BME280;26644;50.248;19.032;2024-03-02T09:20:41;97573.28;;;12.56;63.84
40918;BME280;26644;50.248;19.032;2024-03-02T09:23:45;97574.47;;;12.41;64.28
40918;BME280;26644;50.248;19.032;2024-03-02T09:26:50;97578.19;;;12.37;64.97
40918;BME280;26644;50.248;19.032;2024-03-02T09:29:55;97576.03;;;12.34;64.53
40918;BME280;26644;50.248;19.032;2024-03-02T09:33:00;97587.56;;;12.36;64.54
40918;BME280;26644;50.248;19.032;2024-03-02T09:36:16;97582.28;;;12.25;64.71
40918;BME280;26644;50.248;19.032;2024-03-02T09:39:22;97584.47;;;12.15;64.67
40918;BME280;26644;50.248;19.032;2024-03-02T09:42:26;97592.94;;;12.18;65.48
40918;BME280;26644;50.248;19.032;2024-03-02T09:45:31;97590.19;;;12.18;65.25
40918;BME280;26644;50.248;19.032;2024-03-02T09:48:35;97590.78;;;12.15;64.90
40918;BME280;26644;50.248;19.032;2024-03-02T09:51:47;97588.78;;;12.07;64.72
40918;BME280;26644;50.248;19.032;2024-03-02T09:54:52;97593.59;;;12.01;65.21
40918;BME280;26644;50.248;19.032;2024-03-02T09:57:57;97594.28;;;11.93;65.06
40918;BME280;26644;50.248;19.032;2024-03-02T10:01:01;97600.31;;;11.81;65.38
40918;BME280;26644;50.248;19.032;2024-03-02T10:04:11;97599.31;;;11.77;65.66
40918;BME280;26644;50.248;19.032;2024-03-02T10:07:19;97588.09;;;11.73;65.69
40918;BME280;26644;50.248;19.032;2024-03-02T10:10:24;97590.53;;;11.75;65.82
40918;BME280;26644;50.248;19.032;2024-03-02T10:13:40;97593.59;;;11.73;65.75
40918;BME280;26644;50.248;19.032;2024-03-02T10:16:45;97590.22;;;11.76;65.96
40918;BME280;26644;50.248;19.032;2024-03-02T10:19:50;97585.13;;;11.84;66.15
40918;BME280;26644;50.248;19.032;2024-03-02T10:23:09;97584.41;;;11.92;65.89
40918;BME280;26644;50.248;19.032;2024-03-02T10:26:17;97584.41;;;11.92;65.56
40918;BME280;26644;50.248;19.032;2024-03-02T10:29:22;97588.06;;;11.87;65.16
40918;BME280;26644;50.248;19.032;2024-03-02T10:32:29;97595.13;;;11.80;65.49
40918;BME280;26644;50.248;19.032;2024-03-02T10:35:34;97598.00;;;11.74;66.04
40918;BME280;26644;50.248;19.032;2024-03-02T10:38:44;97602.47;;;11.70;66.33
40918;BME280;26644;50.248;19.032;2024-03-02T10:41:52;97601.56;;;11.61;66.08
40918;BME280;26644;50.248;19.032;2024-03-02T10:44:57;97602.47;;;11.56;66.34
40918;BME280;26644;50.248;19.032;2024-03-02T10:48:02;97603.41;;;11.52;66.52
40918;BME280;26644;50.248;19.032;2024-03-02T10:51:07;97600.44;;;11.48;66.89
40918;BME280;26644;50.248;19.032;2024-03-02T10:54:14;97608.91;;;11.52;67.36
40918;BME280;26644;50.248;19.032;2024-03-02T10:57:22;97600.75;;;11.47;67.42
40918;BME280;26644;50.248;19.032;2024-03-02T11:00:34;97609.41;;;11.54;67.23
40918;BME280;26644;50.248;19.032;2024-03-02T11:03:44;97610.41;;;11.58;66.67
40918;BME280;26644;50.248;19.032;2024-03-02T11:06:51;97606.94;;;11.52;66.46
40918;BME280;26644;50.248;19.032;2024-03-02T11:10:01;97602.88;;;11.50;66.72
40918;BME280;26644;50.248;19.032;2024-03-02T11:13:12;97599.13;;;11.45;67.26
40918;BME280;26644;50.248;19.032;2024-03-02T11:16:25;97599.91;;;11.46;67.13
40918;BME280;26644;50.248;19.032;2024-03-02T11:19:38;97602.06;;;11.49;67.38
40918;BME280;26644;50.248;19.032;2024-03-02T11:22:44;97594.84;;;11.53;67.55
40918;BME280;26644;50.248;19.032;2024-03-02T11:25:52;97589.25;;;11.58;67.40
40918;BME280;26644;50.248;19.032;2024-03-02T11:28:56;97589.94;;;11.64;67.35
40918;BME280;26644;50.248;19.032;2024-03-02T11:32:03;97586.78;;;11.71;67.48
40918;BME280;26644;50.248;19.032;2024-03-02T11:35:08;97579.13;;;11.82;67.70
40918;BME280;26644;50.248;19.032;2024-03-02T11:38:13;97576.88;;;11.98;67.68
40918;BME280;26644;50.248;19.032;2024-03-02T11:41:22;97577.03;;;12.15;67.49
40918;BME280;26644;50.248;19.032;2024-03-02T11:44:29;97575.72;;;12.35;67.46
40918;BME280;26644;50.248;19.032;2024-03-02T11:47:36;97576.34;;;12.55;67.25
40918;BME280;26644;50.248;19.032;2024-03-02T11:50:46;97575.53;;;12.77;67.08
40918;BME280;26644;50.248;19.032;2024-03-02T11:53:54;97560.72;;;12.95;66.73
40918;BME280;26644;50.248;19.032;2024-03-02T11:57:04;97571.03;;;13.13;66.56
40918;BME280;26644;50.248;19.032;2024-03-02T12:00:17;97571.91;;;13.31;66.12
40918;BME280;26644;50.248;19.032;2024-03-02T12:03:23;97571.00;;;13.44;66.26
40918;BME280;26644;50.248;19.032;2024-03-02T12:06:29;97568.44;;;13.56;65.51
40918;BME280;26644;50.248;19.032;2024-03-02T12:09:35;97567.66;;;13.65;65.05
40918;BME280;26644;50.248;19.032;2024-03-02T12:12:41;97564.25;;;13.68;65.03
40918;BME280;26644;50.248;19.032;2024-03-02T12:15:46;97555.97;;;13.68;64.30
40918;BME280;26644;50.248;19.032;2024-03-02T12:18:51;97563.28;;;13.72;64.04
40918;BME280;26644;50.248;19.032;2024-03-02T12:21:56;97564.59;;;13.75;63.82
40918;BME280;26644;50.248;19.032;2024-03-02T12:25:01;97563.16;;;13.77;64.35
40918;BME280;26644;50.248;19.032;2024-03-02T12:28:08;97555.03;;;13.72;63.93
40918;BME280;26644;50.248;19.032;2024-03-02T12:31:13;97564.94;;;13.73;63.88
40918;BME280;26644;50.248;19.032;2024-03-02T12:34:19;97558.09;;;13.71;64.14
40918;BME280;26644;50.248;19.032;2024-03-02T12:37:24;97554.19;;;13.63;63.47
40918;BME280;26644;50.248;19.032;2024-03-02T12:40:30;97554.00;;;13.59;64.05
40918;BME280;26644;50.248;19.032;2024-03-02T12:43:38;97555.78;;;13.55;63.43
40918;BME280;26644;50.248;19.032;2024-03-02T12:46:43;97547.66;;;13.50;63.84
40918;BME280;26644;50.248;19.032;2024-03-02T12:49:49;97547.34;;;13.43;63.99
40918;BME280;26644;50.248;19.032;2024-03-02T12:52:54;97547.81;;;13.45;64.65
40918;BME280;26644;50.248;19.032;2024-03-02T12:55:59;97557.19;;;13.44;64.73
40918;BME280;26644;50.248;19.032;2024-03-02T12:59:08;97558.00;;;13.36;64.89
40918;BME280;26644;50.248;19.032;2024-03-02T13:02:17;97557.66;;;13.28;65.45
40918;BME280;26644;50.248;19.032;2024-03-02T13:05:22;97553.91;;;13.24;65.69
40918;BME280;26644;50.248;19.032;2024-03-02T13:08:27;97556.13;;;13.14;65.85
40918;BME280;26644;50.248;19.032;2024-03-02T13:11:32;97556.53;;;12.98;66.48
40918;BME280;26644;50.248;19.032;2024-03-02T13:14:39;97532.09;;;12.74;66.32
40918;BME280;26644;50.248;19.032;2024-03-02T13:17:45;97549.13;;;12.76;67.09
40918;BME280;26644;50.248;19.032;2024-03-02T13:20:50;97544.38;;;12.68;67.88
40918;BME280;26644;50.248;19.032;2024-03-02T13:23:55;97543.38;;;12.64;67.67
40918;BME280;26644;50.248;19.032;2024-03-02T13:26:59;97546.44;;;12.62;68.58
40918;BME280;26644;50.248;19.032;2024-03-02T13:30:09;97543.81;;;12.57;68.93
40918;BME280;26644;50.248;19.032;2024-03-02T13:33:14;97537.94;;;12.50;69.26
40918;BME280;26644;50.248;19.032;2024-03-02T13:36:23;97541.31;;;12.47;69.58
40918;BME280;26644;50.248;19.032;2024-03-02T13:39:27;97546.16;;;12.41;70.12
40918;BME280;26644;50.248;19.032;2024-03-02T13:42:33;97545.28;;;12.32;70.91
40918;BME280;26644;50.248;19.032;2024-03-02T13:45:39;97551.25;;;12.34;71.29
40918;BME280;26644;50.248;19.032;2024-03-02T13:48:45;97543.84;;;12.34;72.26
40918;BME280;26644;50.248;19.032;2024-03-02T13:51:49;97550.16;;;12.35;72.25
40918;BME280;26644;50.248;19.032;2024-03-02T13:54:54;97544.16;;;12.33;72.43
40918;BME280;26644;50.248;19.032;2024-03-02T13:57:58;97541.88;;;12.35;72.78
40918;BME280;26644;50.248;19.032;2024-03-02T14:01:06;97538.34;;;12.34;72.94
40918;BME280;26644;50.248;19.032;2024-03-02T14:04:10;97526.50;;;12.34;73.42
40918;BME280;26644;50.248;19.032;2024-03-02T14:07:15;97518.34;;;12.28;73.83
40918;BME280;26644;50.248;19.032;2024-03-02T14:10:20;97525.94;;;12.23;74.19
40918;BME280;26644;50.248;19.032;2024-03-02T14:13:25;97516.16;;;12.17;74.43
40918;BME280;26644;50.248;19.032;2024-03-02T14:16:32;97523.81;;;12.20;74.55
40918;BME280;26644;50.248;19.032;2024-03-02T14:19:38;97527.06;;;12.22;74.93
40918;BME280;26644;50.248;19.032;2024-03-02T14:22:42;97516.75;;;12.27;74.75
40918;BME280;26644;50.248;19.032;2024-03-02T14:25:47;97521.97;;;12.38;74.07
40918;BME280;26644;50.248;19.032;2024-03-02T14:28:52;97519.31;;;12.47;73.59
40918;BME280;26644;50.248;19.032;2024-03-02T14:31:59;97518.66;;;12.50;73.17
40918;BME280;26644;50.248;19.032;2024-03-02T14:35:05;97522.13;;;12.55;72.93
40918;BME280;26644;50.248;19.032;2024-03-02T14:38:12;97531.53;;;12.63;72.48
40918;BME280;26644;50.248;19.032;2024-03-02T14:41:16;97537.63;;;12.74;72.13
40918;BME280;26644;50.248;19.032;2024-03-02T14:44:21;97539.78;;;12.86;71.63
40918;BME280;26644;50.248;19.032;2024-03-02T14:47:28;97546.16;;;12.95;71.24
40918;BME280;26644;50.248;19.032;2024-03-02T14:50:33;97535.78;;;13.01;70.87
40918;BME280;26644;50.248;19.032;2024-03-02T14:53:37;97543.59;;;13.07;70.33
40918;BME280;26644;50.248;19.032;2024-03-02T14:56:42;97541.19;;;13.15;70.42
40918;BME280;26644;50.248;19.032;2024-03-02T14:59:47;97545.13;;;13.22;69.89
40918;BME280;26644;50.248;19.032;2024-03-02T15:02:55;97546.13;;;13.26;69.07
40918;BME280;26644;50.248;19.032;2024-03-02T15:05:59;97537.38;;;13.24;68.71
40918;BME280;26644;50.248;19.032;2024-03-02T15:09:05;97539.41;;;13.19;69.80
40918;BME280;26644;50.248;19.032;2024-03-02T15:12:10;97534.22;;;13.17;69.80
40918;BME280;26644;50.248;19.032;2024-03-02T15:15:16;97535.19;;;13.13;69.99
40918;BME280;26644;50.248;19.032;2024-03-02T15:18:22;97537.44;;;13.02;69.65
40918;BME280;26644;50.248;19.032;2024-03-02T15:21:28;97539.19;;;12.98;69.74
40918;BME280;26644;50.248;19.032;2024-03-02T15:24:32;97539.69;;;13.00;69.82
40918;BME280;26644;50.248;19.032;2024-03-02T15:27:37;97540.34;;;13.05;69.67
40918;BME280;26644;50.248;19.032;2024-03-02T15:30:41;97545.06;;;13.05;68.72
40918;BME280;26644;50.248;19.032;2024-03-02T15:33:49;97536.91;;;13.00;68.59
40918;BME280;26644;50.248;19.032;2024-03-02T15:36:54;97535.75;;;12.92;68.87
40918;BME280;26644;50.248;19.032;2024-03-02T15:39:59;97530.22;;;12.83;69.31
40918;BME280;26644;50.248;19.032;2024-03-02T15:43:07;97537.47;;;12.79;69.72
40918;BME280;26644;50.248;19.032;2024-03-02T15:46:12;97541.34;;;12.78;69.57
40918;BME280;26644;50.248;19.032;2024-03-02T15:49:19;97544.28;;;12.82;69.78
40918;BME280;26644;50.248;19.032;2024-03-02T15:52:24;97545.91;;;12.83;69.04
40918;BME280;26644;50.248;19.032;2024-03-02T15:55:28;97551.59;;;12.86;69.40
40918;BME280;26644;50.248;19.032;2024-03-02T15:58:33;97546.91;;;12.87;68.88
40918;BME280;26644;50.248;19.032;2024-03-02T16:01:38;97543.16;;;12.83;68.89
40918;BME280;26644;50.248;19.032;2024-03-02T16:04:46;97555.56;;;12.71;69.30
40918;BME280;26644;50.248;19.032;2024-03-02T16:07:50;97546.13;;;12.64;70.23
40918;BME280;26644;50.248;19.032;2024-03-02T16:10:55;97545.91;;;12.51;70.14
40918;BME280;26644;50.248;19.032;2024-03-02T16:14:00;97542.09;;;12.38;71.23
40918;BME280;26644;50.248;19.032;2024-03-02T16:17:04;97539.38;;;12.24;71.53
40918;BME280;26644;50.248;19.032;2024-03-02T16:20:11;97532.50;;;12.13;72.15